Terminal Aerodrome Forecast
Issued by NWS

Current Version | Previous Version | Text Only | Print | Product List | Glossary Off
Versions: 1 2 3 4 5 6 7 8 9 10 11 12 13 14 15 16 17 18 19 20

000
FTUS41 KPBZ 291100
TAFHLG
TAF
KHLG 291133Z 2912/3012 20005KT P6SM SKC
     FM291800 20012G18KT P6SM FEW150
     FM300400 22010KT P6SM -SHRA OVC025=

USA.gov is the U.S. government's official web portal to all federal, state and local government web resources and services.